Time;durP1;ratioP1;P1;durP2;ratioP2;P2;SDS_P1;SDS_P2;PMS_P1;PMS_P2;Temp;Humidity;BMP_temperature;BMP_pressure;BME280_temperature;BME280_humidity;BME280_pressure;Samples;Min_cycle;Max_cycle;Signal;HPM_P1;HPM_P2
2021/05/22 00:01:56;;;;;;;3.00;0.50;;;;;;;12.71;68.58;99335.60;125409;1105;22760;-57
2021/05/22 00:04:26;;;;;;;3.88;0.58;;;;;;;12.70;68.67;99346.06;125497;1098;22746;-57
2021/05/22 00:06:56;;;;;;;2.90;0.50;;;;;;;12.70;68.53;99360.07;125510;1099;25867;-58
2021/05/22 00:09:25;;;;;;;3.30;0.70;;;;;;;12.69;68.59;99358.53;125613;1105;22828;-58
2021/05/22 00:11:55;;;;;;;2.25;0.50;;;;;;;12.71;68.64;99352.41;125469;1104;22832;-57
2021/05/22 00:14:25;;;;;;;2.27;0.53;;;;;;;12.68;68.83;99342.99;125569;1104;22826;-58
2021/05/22 00:16:55;;;;;;;4.97;0.60;;;;;;;12.68;68.79;99331.79;125497;1105;22747;-58
2021/05/22 00:19:25;;;;;;;2.60;0.40;;;;;;;12.65;68.72;99324.44;125527;1104;22819;-57
2021/05/22 00:21:55;;;;;;;2.78;0.58;;;;;;;12.66;69.13;99336.41;125519;1105;22758;-58
2021/05/22 00:24:25;;;;;;;2.33;0.70;;;;;;;12.68;68.96;99333.84;125487;1099;22797;-60
2021/05/22 00:26:55;;;;;;;4.43;0.50;;;;;;;12.68;68.96;99334.59;125474;1100;22764;-58
2021/05/22 00:29:25;;;;;;;4.23;0.60;;;;;;;12.69;68.93;99347.33;125593;1098;25874;-59
2021/05/22 00:31:55;;;;;;;2.53;0.60;;;;;;;12.68;68.87;99334.59;125455;1104;24534;-58
2021/05/22 00:34:24;;;;;;;2.48;0.50;;;;;;;12.67;68.95;99333.08;125674;1104;22871;-58
2021/05/22 00:36:54;;;;;;;2.80;0.60;;;;;;;12.65;68.98;99332.84;125652;1104;22771;-58
2021/05/22 00:39:24;;;;;;;3.05;0.48;;;;;;;12.65;68.78;99346.06;125521;1104;25164;-58
2021/05/22 00:41:54;;;;;;;3.85;0.48;;;;;;;12.64;69.08;99344.56;125550;1105;22821;-57
2021/05/22 00:44:30;;;;;;;1.20;0.30;;;;;;;12.64;69.23;99347.36;125513;1099;27305;-57
2021/05/22 00:47:01;;;;;;;3.35;0.50;;;;;;;12.64;68.98;99350.16;125542;1104;22747;-58
2021/05/22 00:49:31;;;;;;;2.00;0.50;;;;;;;12.66;68.97;99347.60;125633;1099;22771;-58
2021/05/22 00:52:04;;;;;;;1.45;0.40;;;;;;;12.66;69.06;99347.60;125523;1104;22842;-59
2021/05/22 00:54:34;;;;;;;2.10;0.50;;;;;;;12.66;68.94;99342.00;125605;1104;22747;-58
2021/05/22 00:57:04;;;;;;;3.98;0.50;;;;;;;12.66;68.70;99347.60;125515;1105;22747;-59
2021/05/22 00:59:34;;;;;;;5.47;0.50;;;;;;;12.65;68.92;99357.27;125941;1100;22935;-57
2021/05/22 01:02:04;;;;;;;1.95;0.40;;;;;;;12.66;69.04;99347.60;125544;1104;24403;-59
2021/05/22 01:04:34;;;;;;;2.13;0.40;;;;;;;12.66;69.14;99336.41;125484;1099;26271;-59
2021/05/22 01:07:03;;;;;;;;;;;;;;;12.67;68.71;99326.71;125785;1099;27597;-59
2021/05/22 01:09:34;;;;;;;3.73;0.60;;;;;;;12.66;69.04;99314.74;125485;1098;25795;-59
2021/05/22 01:12:06;;;;;;;2.77;0.47;;;;;;;12.66;68.74;99311.20;125589;1099;27262;-58
2021/05/22 01:14:42;;;;;;;1.70;0.40;;;;;;;12.67;68.93;99315.52;125603;1105;22768;-58
2021/05/22 01:17:15;;;;;;;2.40;0.60;;;;;;;12.66;69.04;99316.80;125627;1098;25874;-59
2021/05/22 01:19:55;;;;;;;2.70;0.50;;;;;;;12.66;69.01;99308.41;125570;1104;22819;-56
2021/05/22 01:22:27;;;;;;;5.73;0.50;;;;;;;12.65;68.80;99313.23;125654;1100;23264;-57
2021/05/22 01:25:04;;;;;;;3.73;0.50;;;;;;;12.67;68.83;99312.71;125405;1098;26678;-58
2021/05/22 01:27:35;;;;;;;4.60;0.70;;;;;;;12.67;69.10;99296.67;125463;1105;22750;-57
2021/05/22 01:30:09;;;;;;;2.10;0.50;;;;;;;12.68;68.92;99311.45;125612;1104;22809;-57
2021/05/22 01:32:39;;;;;;;2.80;0.60;;;;;;;12.67;69.00;99309.91;125566;1098;25832;-56
2021/05/22 01:35:11;;;;;;;3.55;0.50;;;;;;;12.67;69.03;99304.31;125751;1099;22895;-57
2021/05/22 01:37:40;;;;;;;2.27;0.40;;;;;;;12.68;68.52;99297.45;125632;1104;22754;-58
2021/05/22 01:40:12;;;;;;;1.73;0.50;;;;;;;12.68;68.79;99292.59;125517;1099;27100;-57
2021/05/22 01:42:43;;;;;;;2.45;0.50;;;;;;;12.68;68.88;99284.19;125509;1104;22751;-58
2021/05/22 01:45:16;;;;;;;2.35;0.50;;;;;;;12.66;68.97;99274.80;125650;1099;22810;-56
2021/05/22 01:47:49;;;;;;;4.95;0.70;;;;;;;12.64;68.61;99272.50;125578;1104;22736;-58
2021/05/22 01:50:21;;;;;;;2.40;0.50;;;;;;;12.62;68.93;99291.11;125633;1105;22731;-57
2021/05/22 01:52:55;;;;;;;2.75;0.60;;;;;;;12.61;69.24;99289.58;125664;1099;25852;-58
2021/05/22 01:55:28;;;;;;;3.10;0.70;;;;;;;12.57;69.14;99289.09;125531;1098;27155;-57
2021/05/22 01:57:58;;;;;;;2.45;0.50;;;;;;;12.55;69.35;99297.23;125538;1105;22744;-58
2021/05/22 02:00:28;;;;;;;2.95;0.48;;;;;;;12.53;69.34;99288.59;125501;1104;22741;-57
2021/05/22 02:03:04;;;;;;;6.33;1.15;;;;;;;12.50;69.06;99284.78;125518;1105;22768;-58
2021/05/22 02:05:34;;;;;;;1.97;0.60;;;;;;;12.48;69.53;99286.56;125481;1104;24394;-57
2021/05/22 02:08:10;;;;;;;1.90;0.40;;;;;;;12.45;69.19;99282.78;125559;1104;22825;-57
2021/05/22 02:10:41;;;;;;;4.67;0.50;;;;;;;12.44;69.31;99278.45;125521;1104;22771;-58
2021/05/22 02:13:12;;;;;;;1.67;0.37;;;;;;;12.42;69.41;99289.39;125642;1099;27154;-57
2021/05/22 02:15:46;;;;;;;5.00;0.50;;;;;;;12.41;69.19;99293.48;125470;1105;22826;-57
2021/05/22 02:18:19;;;;;;;3.40;0.50;;;;;;;12.39;69.30;99289.67;125619;1104;22743;-57
2021/05/22 02:20:52;;;;;;;2.83;0.40;;;;;;;12.37;69.16;99303.42;125580;1105;22747;-58
2021/05/22 02:23:27;;;;;;;1.17;0.40;;;;;;;12.34;69.31;99307.23;125531;1104;22826;-57
2021/05/22 02:26:00;;;;;;;3.40;0.40;;;;;;;12.33;69.22;99316.92;125486;1099;22890;-57
2021/05/22 02:28:33;;;;;;;2.30;0.50;;;;;;;12.32;69.14;99320.98;125615;1099;26145;-57
2021/05/22 02:31:03;;;;;;;3.95;0.50;;;;;;;12.29;69.33;99330.42;125577;1105;22776;-58
2021/05/22 02:33:34;;;;;;;0.95;0.40;;;;;;;12.27;69.50;99319.72;125596;1099;26967;-56
2021/05/22 02:36:05;;;;;;;1.80;0.45;;;;;;;12.26;69.43;99304.21;125673;1099;22741;-57
2021/05/22 02:38:42;;;;;;;1.93;0.40;;;;;;;12.25;69.55;99301.94;125656;1104;22828;-58
2021/05/22 02:41:13;;;;;;;1.50;0.40;;;;;;;12.23;69.70;99299.63;125713;1100;22772;-58
2021/05/22 02:43:47;;;;;;;3.50;0.40;;;;;;;12.22;69.55;99298.13;125536;1104;22836;-57
2021/05/22 02:46:19;;;;;;;2.65;0.35;;;;;;;12.21;69.60;99290.98;125626;1099;26644;-57
2021/05/22 02:48:53;;;;;;;2.43;0.40;;;;;;;12.19;69.89;99290.73;125661;1104;22767;-58
2021/05/22 02:51:25;;;;;;;1.90;0.40;;;;;;;12.16;69.73;99298.14;125515;1099;22751;-58
2021/05/22 02:53:59;;;;;;;3.43;0.40;;;;;;;12.15;69.76;99298.64;125552;1104;22744;-58
2021/05/22 02:56:32;;;;;;;2.00;0.40;;;;;;;12.13;69.81;99299.16;125572;1105;24294;-58
2021/05/22 02:59:04;;;;;;;2.00;0.50;;;;;;;12.13;70.05;99295.59;125491;1104;22750;-57
2021/05/22 03:01:35;;;;;;;3.37;0.50;;;;;;;12.10;69.40;99297.37;125563;1105;24443;-58
2021/05/22 03:04:06;;;;;;;2.80;0.50;;;;;;;12.09;70.13;99312.64;125524;1104;22765;-58
2021/05/22 03:06:37;;;;;;;2.60;0.50;;;;;;;12.09;70.04;99307.05;125540;1104;22753;-58
2021/05/22 03:09:08;;;;;;;2.23;0.93;;;;;;;12.08;70.15;99316.70;125542;1104;22758;-58
2021/05/22 03:11:37;;;;;;;2.75;0.60;;;;;;;12.07;70.16;99320.02;125612;1104;22771;-58
2021/05/22 03:14:09;;;;;;;3.97;0.60;;;;;;;12.05;70.15;99319.77;125548;1099;25852;-58
2021/05/22 03:16:39;;;;;;;3.45;1.05;;;;;;;12.04;70.37;99312.66;125489;1100;26181;-57
2021/05/22 03:19:10;;;;;;;1.40;0.50;;;;;;;12.02;70.30;99301.97;125554;1105;22745;-58
2021/05/22 03:21:40;;;;;;;2.05;0.40;;;;;;;12.02;70.31;99293.58;125631;1105;22730;-58
2021/05/22 03:24:12;;;;;;;2.90;0.50;;;;;;;12.04;70.52;99298.67;125581;1104;22736;-58
2021/05/22 03:26:43;;;;;;;2.57;0.50;;;;;;;12.03;70.41;99283.92;125650;1104;22741;-58
2021/05/22 03:29:12;;;;;;;5.18;0.70;;;;;;;12.05;70.42;99292.56;125534;1105;23224;-57
2021/05/22 03:31:42;;;;;;;1.93;0.50;;;;;;;12.07;70.46;99289.25;125488;1104;24567;-57
2021/05/22 03:34:12;;;;;;;4.28;0.70;;;;;;;12.08;70.45;99299.17;125542;1100;22765;-58
2021/05/22 03:36:44;;;;;;;4.90;0.70;;;;;;;12.06;70.32;99293.33;125490;1100;22809;-57
2021/05/22 03:39:14;;;;;;;4.05;0.50;;;;;;;12.05;70.76;99295.36;125583;1105;24191;-58
2021/05/22 03:41:45;;;;;;;2.75;0.60;;;;;;;12.05;70.84;99286.97;125509;1105;22732;-57
2021/05/22 03:44:15;;;;;;;3.40;0.60;;;;;;;12.06;70.75;99274.49;125482;1104;22743;-58
2021/05/22 03:49:12;;;;;;;3.10;0.60;;;;;;;12.07;70.59;99270.43;126886;1086;111596;-77
2021/05/22 03:51:42;;;;;;;2.93;0.43;;;;;;;12.08;71.11;99271.94;126478;1101;22955;-77
2021/05/22 03:54:10;;;;;;;;;;;;;;;12.09;71.02;99287.47;126491;1101;22796;-78
2021/05/22 03:56:40;;;;;;;2.33;0.70;;;;;;;12.09;70.90;99281.88;126458;1101;21703;-78
2021/05/22 03:59:12;;;;;;;2.23;0.60;;;;;;;12.10;71.24;99293.83;126217;1104;22754;-77
2021/05/22 04:01:42;;;;;;;1.85;0.40;;;;;;;12.09;70.96;99304.25;126213;1104;22752;-76
2021/05/22 04:04:14;;;;;;;3.17;0.50;;;;;;;12.08;71.30;99321.56;126215;1104;22882;-77
2021/05/22 04:06:44;;;;;;;1.93;0.50;;;;;;;12.08;71.19;99329.95;126207;1104;22731;-78
2021/05/22 04:09:14;;;;;;;1.60;0.50;;;;;;;12.07;71.17;99329.18;126180;1104;24435;-77
2021/05/22 04:11:44;;;;;;;6.40;0.65;;;;;;;12.06;71.25;99336.03;126242;1096;22796;-78
2021/05/22 04:14:13;;;;;;;6.28;0.55;;;;;;;12.07;71.54;99334.00;126178;1096;27301;-77
2021/05/22 04:16:43;;;;;;;4.15;0.70;;;;;;;12.04;71.40;99335.78;126177;1104;22731;-78
2021/05/22 04:19:13;;;;;;;5.13;0.75;;;;;;;12.05;71.43;99328.16;126235;1104;22796;-78
2021/05/22 04:21:43;;;;;;;3.68;0.63;;;;;;;12.06;71.54;99332.50;126235;1104;22864;-77
2021/05/22 04:24:13;;;;;;;2.77;0.60;;;;;;;12.06;71.63;99329.70;126242;1104;22769;-78
2021/05/22 04:26:43;;;;;;;4.23;0.65;;;;;;;12.06;71.70;99324.10;126153;1097;25867;-77
2021/05/22 04:29:13;;;;;;;6.38;0.73;;;;;;;12.07;71.44;99331.98;126210;1096;25977;-78
2021/05/22 04:31:43;;;;;;;2.95;0.60;;;;;;;12.11;71.74;99326.11;126202;1104;22741;-77
2021/05/22 04:34:13;;;;;;;5.28;0.70;;;;;;;12.12;71.81;99327.66;126213;1104;22919;-77
2021/05/22 04:36:43;;;;;;;4.63;0.90;;;;;;;12.14;71.87;99336.30;126172;1104;22764;-77
2021/05/22 04:39:13;;;;;;;2.90;0.70;;;;;;;12.17;71.55;99330.43;126142;1104;22742;-77
2021/05/22 04:41:44;;;;;;;6.17;0.70;;;;;;;12.21;71.79;99318.97;126234;1097;25983;-77
2021/05/22 04:44:15;;;;;;;3.25;0.70;;;;;;;12.25;71.43;99302.67;126095;1096;26260;-77
2021/05/22 04:46:45;;;;;;;3.03;0.80;;;;;;;12.30;71.51;99309.53;126183;1104;22826;-77
2021/05/22 04:49:15;;;;;;;2.80;0.60;;;;;;;12.32;71.68;99316.15;126205;1104;22768;-77
2021/05/22 04:51:45;;;;;;;3.38;0.80;;;;;;;12.31;71.67;99325.06;126174;1104;23464;-78
2021/05/22 04:54:21;;;;;;;2.13;0.60;;;;;;;12.33;71.91;99316.92;126159;1104;22755;-78
2021/05/22 04:56:52;;;;;;;2.65;0.70;;;;;;;12.34;71.83;99319.20;126171;1104;22806;-77
2021/05/22 04:59:21;;;;;;;;;;;;;;;12.37;71.77;99317.41;126223;1104;24305;-77
2021/05/22 05:01:52;;;;;;;3.75;0.80;;;;;;;12.38;72.02;99316.13;126228;1104;24192;-77
2021/05/22 05:04:23;;;;;;;2.10;0.60;;;;;;;12.37;71.82;99315.38;126188;1104;23466;-79
2021/05/22 05:06:54;;;;;;;3.40;0.60;;;;;;;12.39;71.64;99317.66;126199;1104;22806;-77
2021/05/22 05:09:24;;;;;;;3.80;0.60;;;;;;;12.42;71.90;99316.62;126191;1096;22753;-77
2021/05/22 05:11:54;;;;;;;4.15;0.60;;;;;;;12.45;71.73;99318.41;126341;1104;22747;-78
2021/05/22 05:14:23;;;;;;;3.88;0.75;;;;;;;12.48;71.82;99314.56;126249;1104;22816;-78
2021/05/22 05:16:54;;;;;;;2.70;0.60;;;;;;;12.52;71.74;99312.28;126334;1096;25834;-77
2021/05/22 05:19:27;;;;;;;2.05;0.40;;;;;;;12.53;71.93;99314.56;126231;1104;22731;-77
2021/05/22 05:21:57;;;;;;;2.63;0.60;;;;;;;12.56;72.36;99310.72;126217;1096;26505;-75
2021/05/22 05:24:28;;;;;;;3.43;0.50;;;;;;;12.60;71.78;99327.27;126220;1104;22929;-76
2021/05/22 05:26:58;;;;;;;4.20;0.50;;;;;;;12.65;71.79;99320.87;126176;1096;25970;-77
2021/05/22 05:29:28;;;;;;;2.23;0.55;;;;;;;12.70;72.16;99325.70;126118;1097;22813;-76
2021/05/22 05:31:58;;;;;;;3.33;0.50;;;;;;;12.73;71.94;99324.65;126145;1096;22741;-76
2021/05/22 05:34:28;;;;;;;4.18;0.60;;;;;;;12.77;71.71;99334.31;126098;1104;22877;-76
2021/05/22 05:36:57;;;;;;;2.28;0.70;;;;;;;12.81;71.88;99342.43;126382;1101;22735;-77
2021/05/22 05:39:27;;;;;;;3.05;0.50;;;;;;;12.84;71.79;99330.98;126196;1096;22850;-77
2021/05/22 05:41:57;;;;;;;3.30;0.60;;;;;;;12.89;72.27;99326.63;126172;1104;22750;-76
2021/05/22 05:44:26;;;;;;;2.77;0.67;;;;;;;12.93;72.44;99332.72;126105;1096;22732;-76
2021/05/22 05:46:56;;;;;;;2.70;0.70;;;;;;;12.96;72.26;99329.64;126202;1104;22848;-77
2021/05/22 05:49:28;;;;;;;2.13;0.50;;;;;;;13.00;72.28;99337.77;126205;1096;26235;-76
2021/05/22 05:51:58;;;;;;;2.33;0.60;;;;;;;13.05;72.67;99334.21;126144;1104;22820;-77
2021/05/22 05:54:27;;;;;;;;;;;;;;;13.07;72.13;99347.70;126212;1104;22843;-77
2021/05/22 05:56:57;;;;;;;3.37;0.70;;;;;;;13.08;71.85;99346.43;126140;1104;21471;-77
2021/05/22 05:59:27;;;;;;;4.28;0.80;;;;;;;13.11;71.57;99360.16;126149;1097;22873;-76
2021/05/22 06:01:57;;;;;;;3.90;0.60;;;;;;;13.13;71.70;99351.23;126206;1104;22835;-77
2021/05/22 06:04:26;;;;;;;4.80;0.78;;;;;;;13.15;71.54;99360.64;126223;1104;22734;-76
2021/05/22 06:06:56;;;;;;;3.93;0.60;;;;;;;13.17;71.78;99355.28;126155;1104;24819;-76
2021/05/22 06:09:26;;;;;;;2.15;0.50;;;;;;;13.20;72.00;99357.03;126143;1097;26197;-78
2021/05/22 06:11:56;;;;;;;3.93;0.60;;;;;;;13.24;71.75;99376.40;126184;1104;22742;-77
2021/05/22 06:14:29;;;;;;;3.40;0.50;;;;;;;13.28;71.68;99374.84;126146;1104;23444;-76
2021/05/22 06:16:58;;;;;;;2.55;0.80;;;;;;;13.30;72.07;99366.68;126220;1104;24396;-77
2021/05/22 06:19:28;;;;;;;2.80;0.60;;;;;;;13.35;71.75;99373.52;126211;1097;26265;-76
2021/05/22 06:21:58;;;;;;;2.95;0.63;;;;;;;13.36;72.30;99375.81;126213;1096;26188;-75
2021/05/22 06:24:28;;;;;;;4.27;0.80;;;;;;;13.39;72.21;99374.00;126224;1104;22762;-77
2021/05/22 06:26:58;;;;;;;3.37;0.60;;;;;;;13.42;72.49;99375.77;126233;1104;24175;-79
2021/05/22 06:29:29;;;;;;;4.65;0.68;;;;;;;13.42;72.03;99370.94;126132;1104;22754;-78
2021/05/22 06:31:59;;;;;;;4.07;0.73;;;;;;;13.44;72.09;99373.98;126167;1104;22741;-78
2021/05/22 06:34:29;;;;;;;4.78;0.80;;;;;;;13.46;72.11;99382.63;126202;1103;22765;-79
2021/05/22 06:37:00;;;;;;;4.70;0.80;;;;;;;13.47;71.94;99384.14;126419;1096;27304;-79
2021/05/22 06:39:32;;;;;;;3.33;0.70;;;;;;;13.47;71.94;99381.34;126461;1104;22765;-79
2021/05/22 06:42:02;;;;;;;4.60;0.97;;;;;;;13.48;72.21;99388.48;126671;1104;24276;-81
2021/05/22 06:44:35;;;;;;;3.65;0.60;;;;;;;13.48;71.94;99384.91;127152;1097;22776;-78
2021/05/22 06:47:04;;;;;;;3.90;0.70;;;;;;;13.46;71.78;99387.47;127215;1096;26234;-79
2021/05/22 06:49:34;;;;;;;3.48;0.60;;;;;;;13.44;72.13;99399.22;127195;1104;22770;-79
2021/05/22 06:52:05;;;;;;;2.33;0.68;;;;;;;13.44;72.09;99409.66;126478;1104;22761;-79
2021/05/22 06:54:35;;;;;;;5.95;0.70;;;;;;;13.42;72.38;99403.81;126461;1104;24073;-79
2021/05/22 06:57:05;;;;;;;3.05;0.65;;;;;;;13.42;72.12;99406.61;126528;1097;27375;-80
2021/05/22 06:59:36;;;;;;;3.23;0.80;;;;;;;13.40;71.96;99401.53;126975;1104;22809;-80
2021/05/22 07:02:06;;;;;;;4.10;0.70;;;;;;;13.39;72.28;99411.21;127014;1104;22747;-80
2021/05/22 07:04:37;;;;;;;2.27;0.57;;;;;;;13.38;72.69;99415.31;126649;1104;23009;-83
2021/05/22 07:07:06;;;;;;;2.63;0.60;;;;;;;13.39;72.08;99416.05;127173;1096;27388;-81
2021/05/22 07:09:36;;;;;;;4.00;0.83;;;;;;;13.38;72.45;99417.34;127330;1101;22932;-80
2021/05/22 07:12:06;;;;;;;;;;;;;;;13.39;72.47;99425.23;127300;1101;23607;-80
2021/05/22 07:14:36;;;;;;;3.85;0.70;;;;;;;13.36;72.86;99428.31;127152;1096;22163;-81
2021/05/22 07:17:06;;;;;;;5.80;0.70;;;;;;;13.32;72.96;99425.80;127258;1101;22926;-80
2021/05/22 07:19:36;;;;;;;4.10;0.63;;;;;;;13.29;72.76;99437.26;127132;1101;22838;-82
2021/05/22 07:22:06;;;;;;;3.25;0.85;;;;;;;13.24;72.74;99433.20;127197;1096;26165;-80
2021/05/22 07:24:36;;;;;;;3.00;0.58;;;;;;;13.18;72.72;99438.06;127227;1101;22806;-81
2021/05/22 07:27:06;;;;;;;1.65;0.48;;;;;;;13.16;73.11;99442.69;127482;1101;22764;-81
2021/05/22 07:29:36;;;;;;;2.25;0.38;;;;;;;13.10;73.08;99444.75;127661;1101;22834;-79
2021/05/22 07:32:09;;;;;;;2.98;0.60;;;;;;;13.06;73.37;99441.42;128726;1096;22771;-80
2021/05/22 07:34:39;;;;;;;2.05;0.50;;;;;;;13.00;73.04;99444.23;128618;1101;22742;-80
2021/05/22 07:37:09;;;;;;;1.33;0.43;;;;;;;12.97;73.39;99439.67;129114;1101;22765;-79
2021/05/22 07:39:39;;;;;;;3.98;0.60;;;;;;;12.94;73.62;99449.86;128671;1101;22752;-83
2021/05/22 07:42:09;;;;;;;1.40;0.40;;;;;;;12.92;73.79;99448.84;129093;1096;22601;-82
2021/05/22 07:44:39;;;;;;;5.05;0.50;;;;;;;12.89;73.63;99459.03;128846;1096;22738;-82
2021/05/22 07:47:09;;;;;;;2.90;0.50;;;;;;;12.88;73.94;99453.95;128826;1101;22719;-81
2021/05/22 07:49:39;;;;;;;1.95;0.40;;;;;;;12.86;74.44;99459.30;128590;1101;24065;-80
2021/05/22 07:52:11;;;;;;;4.10;0.70;;;;;;;12.82;74.08;99451.17;127970;1101;22751;-79
2021/05/22 07:54:42;;;;;;;3.80;0.70;;;;;;;12.78;74.05;99453.48;127404;1101;22742;-80
2021/05/22 07:57:13;;;;;;;2.65;0.60;;;;;;;12.76;74.22;99449.66;127337;1097;25867;-81
2021/05/22 07:59:47;;;;;;;1.57;0.40;;;;;;;12.74;74.14;99446.61;127393;1101;22753;-80
2021/05/22 08:02:17;;;;;;;3.03;0.70;;;;;;;12.73;74.61;99442.27;126666;1096;23688;-82
2021/05/22 08:04:47;;;;;;;4.50;0.70;;;;;;;12.73;74.97;99433.87;126509;1101;22727;-77
2021/05/22 08:07:20;;;;;;;;;;;;;;;12.75;74.82;99442.52;126520;1101;22734;-83
2021/05/22 08:09:51;;;;;;;4.00;0.45;;;;;;;12.77;74.69;99442.77;126558;1095;24250;-79
2021/05/22 08:23:16;;;;;;;3.20;0.70;;;;;;;12.87;75.71;99410.39;126022;1091;27215;-62
2021/05/22 08:25:48;;;;;;;2.45;0.53;;;;;;;12.94;75.64;99419.05;125492;1104;24409;-62
2021/05/22 08:28:21;;;;;;;3.70;0.90;;;;;;;13.05;76.29;99426.67;125624;1104;22848;-63
2021/05/22 08:30:51;;;;;;;5.10;0.90;;;;;;;13.15;76.08;99416.69;125658;1096;25838;-62
2021/05/22 08:33:22;;;;;;;4.70;0.90;;;;;;;13.23;76.38;99420.47;125562;1096;26215;-63
2021/05/22 08:35:53;;;;;;;3.87;0.90;;;;;;;13.32;75.60;99425.80;125602;1104;22758;-63
2021/05/22 08:38:25;;;;;;;3.93;0.90;;;;;;;13.37;75.82;99435.42;125479;1104;22877;-62
2021/05/22 08:40:56;;;;;;;4.00;0.80;;;;;;;13.37;75.40;99439.00;125294;1104;22880;-62
2021/05/22 08:43:27;;;;;;;3.75;1.00;;;;;;;13.41;75.59;99433.88;125520;1104;24557;-62
2021/05/22 08:45:58;;;;;;;5.10;1.00;;;;;;;13.43;75.66;99428.52;125553;1096;22742;-63
2021/05/22 08:48:28;;;;;;;3.75;0.90;;;;;;;13.47;75.84;99434.61;125358;1104;22728;-62
2021/05/22 08:51:01;;;;;;;3.48;1.00;;;;;;;13.53;75.66;99429.73;125325;1104;22749;-62
2021/05/22 08:53:31;;;;;;;4.13;1.00;;;;;;;13.58;75.72;99425.38;125604;1097;27147;-62
2021/05/22 08:56:02;;;;;;;2.15;0.70;;;;;;;13.60;75.41;99415.17;126287;1086;26197;-60
2021/05/22 08:58:33;;;;;;;3.25;0.70;;;;;;;13.64;76.29;99417.69;127972;1100;22758;-63
2021/05/22 09:01:04;;;;;;;2.35;0.70;;;;;;;13.71;76.05;99417.91;125606;1104;22753;-61
2021/05/22 09:03:35;;;;;;;6.10;0.90;;;;;;;13.83;76.46;99410.16;125696;1098;25841;-62
2021/05/22 09:06:06;;;;;;;2.70;0.70;;;;;;;13.93;76.17;99405.75;125752;1104;22809;-59
2021/05/22 09:08:38;;;;;;;2.20;0.70;;;;;;;14.06;76.41;99405.13;125578;1104;22737;-61
2021/05/22 09:11:08;;;;;;;4.40;0.80;;;;;;;14.18;76.06;99412.94;125536;1104;22748;-61
2021/05/22 09:13:38;;;;;;;5.60;0.88;;;;;;;14.31;76.15;99423.58;125850;1104;22806;-60
2021/05/22 09:16:11;;;;;;;5.00;0.88;;;;;;;14.41;75.86;99421.95;126070;1104;22800;-61
2021/05/22 09:18:42;;;;;;;2.83;0.60;;;;;;;14.40;75.25;99417.63;125657;1104;22747;-62
2021/05/22 09:21:14;;;;;;;4.95;0.80;;;;;;;14.34;74.64;99428.89;125620;1099;22773;-61
2021/05/22 09:23:50;;;;;;;4.35;0.90;;;;;;;14.30;74.50;99420.00;125662;1104;22930;-60
2021/05/22 09:26:20;;;;;;;3.70;0.90;;;;;;;14.28;75.00;99402.92;125793;1104;22806;-60
2021/05/22 09:28:53;;;;;;;3.65;0.80;;;;;;;14.27;74.91;99411.84;125662;1105;22748;-61
2021/05/22 09:31:27;;;;;;;4.10;0.85;;;;;;;14.27;74.80;99415.42;125593;1099;26207;-60
2021/05/22 09:34:03;;;;;;;4.00;0.90;;;;;;;14.25;74.87;99423.61;125584;1100;22806;-63
2021/05/22 09:36:45;;;;;;;1.80;0.50;;;;;;;14.20;74.43;99423.64;125563;1099;27590;-63
2021/05/22 09:39:20;;;;;;;3.10;0.60;;;;;;;14.16;74.39;99414.74;125569;1104;22777;-63
2021/05/22 09:41:51;;;;;;;2.35;0.60;;;;;;;14.13;73.75;99415.80;125601;1104;22758;-61
2021/05/22 09:44:31;;;;;;;5.65;0.70;;;;;;;14.16;74.11;99417.55;125540;1096;27298;-59
2021/05/22 09:47:03;;;;;;;2.43;0.43;;;;;;;14.17;73.76;99417.05;126031;1096;26628;-60
2021/05/22 09:49:35;;;;;;;1.50;0.40;;;;;;;14.19;73.83;99417.28;125491;1098;26200;-60
2021/05/22 09:52:09;;;;;;;2.80;0.45;;;;;;;14.20;73.58;99401.95;125522;1105;22835;-59
2021/05/22 09:54:45;;;;;;;2.75;0.40;;;;;;;14.20;73.40;99401.18;125746;1104;22846;-60
2021/05/22 09:57:17;;;;;;;5.43;0.57;;;;;;;14.22;73.69;99398.61;125560;1104;23005;-62
2021/05/22 10:00:15;;;;;;;3.60;0.50;;;;;;;14.21;73.43;99403.48;125469;1096;26094;-60
2021/05/22 10:02:49;;;;;;;3.85;0.60;;;;;;;14.21;73.33;99391.48;125520;1099;27413;-60
2021/05/22 10:05:21;;;;;;;1.95;0.60;;;;;;;14.25;73.07;99401.15;125553;1100;22868;-60
2021/05/22 10:07:54;;;;;;;2.00;0.50;;;;;;;14.27;73.03;99397.81;125776;1104;22916;-61
2021/05/22 10:10:40;;;;;;;3.15;0.40;;;;;;;14.30;72.57;99383.50;125528;1104;22819;-60
2021/05/22 10:13:10;;;;;;;1.97;0.40;;;;;;;14.38;72.21;99390.05;125546;1098;26990;-60
2021/05/22 10:15:40;;;;;;;2.70;0.60;;;;;;;14.52;72.74;99388.14;125490;1097;24166;-60
2021/05/22 10:18:12;;;;;;;2.05;0.50;;;;;;;14.66;71.95;99386.20;125591;1104;22751;-60
2021/05/22 10:20:42;;;;;;;4.07;0.60;;;;;;;14.81;71.81;99389.36;126146;1104;22734;-60
2021/05/22 10:23:13;;;;;;;5.20;0.80;;;;;;;14.93;71.14;99396.36;126312;1097;26200;-63
2021/05/22 10:25:43;;;;;;;4.33;0.63;;;;;;;14.99;70.70;99397.81;126375;1104;22816;-61
2021/05/22 10:28:13;;;;;;;1.53;0.40;;;;;;;15.03;70.77;99389.84;125930;1104;23234;-62
2021/05/22 10:30:44;;;;;;;3.08;0.68;;;;;;;15.07;70.26;99392.34;126335;1105;24380;-60
2021/05/22 10:33:16;;;;;;;3.30;0.60;;;;;;;15.11;69.80;99399.20;125944;1099;25826;-61
2021/05/22 10:35:50;;;;;;;2.17;0.30;;;;;;;15.12;69.54;99388.72;125816;1096;23250;-62
2021/05/22 10:38:38;;;;;;;3.05;0.40;;;;;;;15.15;69.88;99384.83;125734;1104;22775;-60
2021/05/22 10:41:11;;;;;;;4.50;0.50;;;;;;;15.12;69.25;99400.73;125742;1100;26511;-62
2021/05/22 10:43:44;;;;;;;25.75;10.75;;;;;;;15.08;68.79;99399.50;126037;1100;22719;-62
2021/05/22 10:46:15;;;;;;;39.25;26.60;;;;;;;15.02;68.75;99396.74;126062;1104;22755;-62
2021/05/22 10:48:51;;;;;;;5.60;1.90;;;;;;;15.04;68.60;99393.42;125891;1104;22735;-62
2021/05/22 10:51:31;;;;;;;2.60;0.55;;;;;;;15.07;68.57;99395.16;126331;1099;22823;-62
2021/05/22 10:54:03;;;;;;;1.25;0.40;;;;;;;15.13;69.27;99396.61;126539;1098;25867;-62
2021/05/22 10:56:56;;;;;;;2.87;0.47;;;;;;;15.15;68.28;99402.46;125845;1098;25886;-65
2021/05/22 10:59:26;;;;;;;2.30;0.50;;;;;;;15.15;67.97;99399.66;125940;1096;22796;-63
2021/05/22 11:01:57;;;;;;;1.50;0.40;;;;;;;15.15;68.05;99405.27;126524;1101;22815;-62
2021/05/22 11:04:33;;;;;;;2.95;0.40;;;;;;;15.22;68.28;99393.44;126214;1096;25794;-62
2021/05/22 11:07:21;;;;;;;2.90;0.50;;;;;;;15.33;68.64;99392.53;125982;1096;22867;-62
2021/05/22 11:09:56;;;;;;;3.35;0.40;;;;;;;15.49;67.84;99385.16;126044;1096;25799;-63
2021/05/22 11:12:44;;;;;;;2.07;0.47;;;;;;;15.64;67.48;99383.41;125626;1101;23281;-63
2021/05/22 11:15:46;;;;;;;2.95;0.40;;;;;;;15.74;66.74;99386.58;125742;1096;25989;-63
2021/05/22 11:18:24;;;;;;;2.30;0.50;;;;;;;15.80;66.46;99373.18;125998;1101;22713;-62
2021/05/22 11:21:15;;;;;;;2.25;0.60;;;;;;;15.83;65.62;99380.56;126277;1101;22719;-62
2021/05/22 11:24:12;;;;;;;4.03;0.83;;;;;;;15.82;65.63;99379.80;126111;1096;25243;-62
2021/05/22 11:27:04;;;;;;;5.15;0.95;;;;;;;15.90;65.32;99371.48;126390;1096;26359;-63
2021/05/22 11:29:55;;;;;;;3.50;0.60;;;;;;;15.97;65.34;99368.78;126700;1101;22891;-65
2021/05/22 11:32:47;;;;;;;3.70;0.60;;;;;;;16.14;64.88;99374.13;126226;1101;27366;-62
2021/05/22 11:35:45;;;;;;;2.90;0.60;;;;;;;16.33;64.24;99369.19;126501;1101;22821;-62
2021/05/22 11:38:37;;;;;;;3.15;0.70;;;;;;;16.53;64.48;99359.39;126018;1101;22759;-62
2021/05/22 11:41:15;;;;;;;3.10;0.70;;;;;;;16.67;64.34;99367.31;126365;1101;22747;-62
2021/05/22 11:43:46;;;;;;;4.10;1.00;;;;;;;16.71;62.93;99366.98;126126;1101;22913;-63
2021/05/22 11:46:18;;;;;;;6.53;0.70;;;;;;;16.69;61.68;99359.07;126559;1101;22840;-61
2021/05/22 11:48:52;;;;;;;4.05;0.55;;;;;;;16.74;62.36;99354.59;126471;1101;22832;-61
2021/05/22 11:51:25;;;;;;;9.40;0.50;;;;;;;16.76;61.71;99349.94;126864;1101;22735;-61
2021/05/22 11:53:59;;;;;;;3.53;0.40;;;;;;;16.74;59.36;99348.96;126597;1101;22762;-61
2021/05/22 11:56:32;;;;;;;2.90;0.30;;;;;;;16.66;59.72;99354.50;126648;1101;22867;-61
2021/05/22 11:59:04;;;;;;;3.10;0.40;;;;;;;16.55;58.59;99346.26;126807;1101;22828;-61
2021/05/22 12:01:37;;;;;;;4.05;0.50;;;;;;;16.50;59.08;99352.78;126712;1096;22825;-61
2021/05/22 12:04:10;;;;;;;1.40;0.30;;;;;;;16.44;59.02;99348.52;126290;1101;22762;-62